sensor_id;sensor_type;location;lat;lon;timestamp;P1;durP1;ratioP1;P2;durP2;ratioP2
56171;SDS011;42052;41.634;-0.946;2023-04-01T00:00:59;6.78;;;3.15;;
56171;SDS011;42052;41.634;-0.946;2023-04-01T00:03:50;6.07;;;3.20;;
56171;SDS011;42052;41.634;-0.946;2023-04-01T00:06:36;8.23;;;3.13;;
56171;SDS011;42052;41.634;-0.946;2023-04-01T00:09:23;6.45;;;3.20;;
56171;SDS011;42052;41.634;-0.946;2023-04-01T00:12:09;6.57;;;3.22;;
56171;SDS011;42052;41.634;-0.946;2023-04-01T00:14:55;6.45;;;3.00;;
56171;SDS011;42052;41.634;-0.946;2023-04-01T00:17:41;8.23;;;3.25;;
56171;SDS011;42052;41.634;-0.946;2023-04-01T00:20:28;6.65;;;2.85;;
56171;SDS011;42052;41.634;-0.946;2023-04-01T00:23:15;7.40;;;2.90;;
56171;SDS011;42052;41.634;-0.946;2023-04-01T00:26:01;6.30;;;3.10;;
56171;SDS011;42052;41.634;-0.946;2023-04-01T00:28:48;6.22;;;2.85;;
56171;SDS011;42052;41.634;-0.946;2023-04-01T00:31:35;6.07;;;3.00;;
56171;SDS011;42052;41.634;-0.946;2023-04-01T00:34:21;7.22;;;3.20;;
56171;SDS011;42052;41.634;-0.946;2023-04-01T00:37:07;7.72;;;3.13;;
56171;SDS011;42052;41.634;-0.946;2023-04-01T00:39:54;5.22;;;2.85;;
56171;SDS011;42052;41.634;-0.946;2023-04-01T00:42:41;7.13;;;2.90;;
56171;SDS011;42052;41.634;-0.946;2023-04-01T00:45:34;5.90;;;2.88;;
56171;SDS011;42052;41.634;-0.946;2023-04-01T00:48:23;6.43;;;2.97;;
56171;SDS011;42052;41.634;-0.946;2023-04-01T00:51:16;7.38;;;3.28;;
56171;SDS011;42052;41.634;-0.946;2023-04-01T00:54:05;5.63;;;2.80;;
56171;SDS011;42052;41.634;-0.946;2023-04-01T00:56:55;7.28;;;3.05;;
56171;SDS011;42052;41.634;-0.946;2023-04-01T00:59:46;7.40;;;3.25;;
56171;SDS011;42052;41.634;-0.946;2023-04-01T01:02:35;5.95;;;2.67;;
56171;SDS011;42052;41.634;-0.946;2023-04-01T01:05:23;5.82;;;2.88;;
56171;SDS011;42052;41.634;-0.946;2023-04-01T01:15:02;6.15;;;2.70;;
56171;SDS011;42052;41.634;-0.946;2023-04-01T01:36:22;6.82;;;3.08;;
56171;SDS011;42052;41.634;-0.946;2023-04-01T01:39:12;6.30;;;2.80;;
56171;SDS011;42052;41.634;-0.946;2023-04-01T01:42:01;7.85;;;3.10;;
56171;SDS011;42052;41.634;-0.946;2023-04-01T01:44:50;6.40;;;2.70;;
56171;SDS011;42052;41.634;-0.946;2023-04-01T01:47:39;6.57;;;2.83;;
56171;SDS011;42052;41.634;-0.946;2023-04-01T01:50:26;7.22;;;2.88;;
56171;SDS011;42052;41.634;-0.946;2023-04-01T01:53:13;6.35;;;2.83;;
56171;SDS011;42052;41.634;-0.946;2023-04-01T01:55:59;5.55;;;2.63;;
56171;SDS011;42052;41.634;-0.946;2023-04-01T01:58:47;6.03;;;2.85;;
56171;SDS011;42052;41.634;-0.946;2023-04-01T02:01:38;6.43;;;2.85;;
56171;SDS011;42052;41.634;-0.946;2023-04-01T02:04:27;6.38;;;2.80;;
56171;SDS011;42052;41.634;-0.946;2023-04-01T02:07:18;6.35;;;2.80;;
56171;SDS011;42052;41.634;-0.946;2023-04-01T02:10:09;5.13;;;2.47;;
56171;SDS011;42052;41.634;-0.946;2023-04-01T02:12:56;6.13;;;2.70;;
56171;SDS011;42052;41.634;-0.946;2023-04-01T02:15:45;7.28;;;2.75;;
56171;SDS011;42052;41.634;-0.946;2023-04-01T02:18:35;7.82;;;2.80;;
56171;SDS011;42052;41.634;-0.946;2023-04-01T02:21:24;5.55;;;2.80;;
56171;SDS011;42052;41.634;-0.946;2023-04-01T02:24:14;6.93;;;2.42;;
56171;SDS011;42052;41.634;-0.946;2023-04-01T02:27:01;5.47;;;2.65;;
56171;SDS011;42052;41.634;-0.946;2023-04-01T02:29:47;6.38;;;2.50;;
56171;SDS011;42052;41.634;-0.946;2023-04-01T02:32:33;6.20;;;2.40;;
56171;SDS011;42052;41.634;-0.946;2023-04-01T02:35:23;7.25;;;2.60;;
56171;SDS011;42052;41.634;-0.946;2023-04-01T02:38:10;5.50;;;2.60;;
56171;SDS011;42052;41.634;-0.946;2023-04-01T02:40:57;5.97;;;2.85;;
56171;SDS011;42052;41.634;-0.946;2023-04-01T02:43:45;6.85;;;2.83;;
56171;SDS011;42052;41.634;-0.946;2023-04-01T02:46:32;5.75;;;2.55;;
56171;SDS011;42052;41.634;-0.946;2023-04-01T02:49:18;6.13;;;2.40;;
56171;SDS011;42052;41.634;-0.946;2023-04-01T02:52:04;5.22;;;2.70;;
56171;SDS011;42052;41.634;-0.946;2023-04-01T02:54:50;6.55;;;2.63;;
56171;SDS011;42052;41.634;-0.946;2023-04-01T02:57:37;7.30;;;2.60;;
56171;SDS011;42052;41.634;-0.946;2023-04-01T03:00:23;5.78;;;2.70;;
56171;SDS011;42052;41.634;-0.946;2023-04-01T03:03:12;5.35;;;2.45;;
56171;SDS011;42052;41.634;-0.946;2023-04-01T03:06:04;5.32;;;2.47;;
56171;SDS011;42052;41.634;-0.946;2023-04-01T03:08:55;4.97;;;2.33;;
56171;SDS011;42052;41.634;-0.946;2023-04-01T03:11:41;6.90;;;2.45;;
56171;SDS011;42052;41.634;-0.946;2023-04-01T03:14:27;6.75;;;2.70;;
56171;SDS011;42052;41.634;-0.946;2023-04-01T03:17:13;5.85;;;2.60;;
56171;SDS011;42052;41.634;-0.946;2023-04-01T03:19:59;7.20;;;2.75;;
56171;SDS011;42052;41.634;-0.946;2023-04-01T03:22:46;7.15;;;2.72;;
56171;SDS011;42052;41.634;-0.946;2023-04-01T03:25:32;7.20;;;2.47;;
56171;SDS011;42052;41.634;-0.946;2023-04-01T03:28:18;7.90;;;2.65;;
56171;SDS011;42052;41.634;-0.946;2023-04-01T03:31:05;7.13;;;2.63;;
56171;SDS011;42052;41.634;-0.946;2023-04-01T03:33:51;8.45;;;2.70;;
56171;SDS011;42052;41.634;-0.946;2023-04-01T03:36:37;5.80;;;2.45;;
56171;SDS011;42052;41.634;-0.946;2023-04-01T03:39:23;5.88;;;2.90;;
56171;SDS011;42052;41.634;-0.946;2023-04-01T03:42:10;8.13;;;2.72;;
56171;SDS011;42052;41.634;-0.946;2023-04-01T03:44:57;7.93;;;2.97;;
56171;SDS011;42052;41.634;-0.946;2023-04-01T03:47:43;7.25;;;2.55;;
56171;SDS011;42052;41.634;-0.946;2023-04-01T03:50:29;7.45;;;2.35;;
56171;SDS011;42052;41.634;-0.946;2023-04-01T03:53:16;6.97;;;2.25;;
56171;SDS011;42052;41.634;-0.946;2023-04-01T03:56:05;6.00;;;2.30;;
56171;SDS011;42052;41.634;-0.946;2023-04-01T03:58:52;5.88;;;2.63;;
56171;SDS011;42052;41.634;-0.946;2023-04-01T04:01:38;6.40;;;2.38;;
56171;SDS011;42052;41.634;-0.946;2023-04-01T04:04:25;5.95;;;2.25;;
56171;SDS011;42052;41.634;-0.946;2023-04-01T04:07:11;4.78;;;2.28;;
56171;SDS011;42052;41.634;-0.946;2023-04-01T04:09:58;6.30;;;2.75;;
56171;SDS011;42052;41.634;-0.946;2023-04-01T04:12:44;5.93;;;2.53;;
56171;SDS011;42052;41.634;-0.946;2023-04-01T04:15:31;5.82;;;2.50;;
56171;SDS011;42052;41.634;-0.946;2023-04-01T04:18:17;5.97;;;2.60;;
56171;SDS011;42052;41.634;-0.946;2023-04-01T04:21:03;9.02;;;2.60;;
56171;SDS011;42052;41.634;-0.946;2023-04-01T04:23:49;5.40;;;2.50;;
56171;SDS011;42052;41.634;-0.946;2023-04-01T04:26:36;8.80;;;2.63;;
56171;SDS011;42052;41.634;-0.946;2023-04-01T04:29:23;6.93;;;3.00;;
56171;SDS011;42052;41.634;-0.946;2023-04-01T04:32:09;5.05;;;2.50;;
56171;SDS011;42052;41.634;-0.946;2023-04-01T04:34:55;5.53;;;2.35;;
56171;SDS011;42052;41.634;-0.946;2023-04-01T04:37:41;5.35;;;2.58;;
56171;SDS011;42052;41.634;-0.946;2023-04-01T04:40:27;7.47;;;2.78;;
56171;SDS011;42052;41.634;-0.946;2023-04-01T04:43:14;8.10;;;2.78;;
56171;SDS011;42052;41.634;-0.946;2023-04-01T04:46:06;9.25;;;2.63;;
56171;SDS011;42052;41.634;-0.946;2023-04-01T04:48:56;5.60;;;2.70;;
56171;SDS011;42052;41.634;-0.946;2023-04-01T04:51:42;5.95;;;2.40;;
56171;SDS011;42052;41.634;-0.946;2023-04-01T04:54:29;6.53;;;2.75;;
56171;SDS011;42052;41.634;-0.946;2023-04-01T04:57:15;7.07;;;2.85;;
56171;SDS011;42052;41.634;-0.946;2023-04-01T05:00:01;6.07;;;2.60;;
56171;SDS011;42052;41.634;-0.946;2023-04-01T05:02:48;9.18;;;2.53;;
56171;SDS011;42052;41.634;-0.946;2023-04-01T05:05:34;7.95;;;2.80;;
56171;SDS011;42052;41.634;-0.946;2023-04-01T05:08:23;5.25;;;2.45;;
56171;SDS011;42052;41.634;-0.946;2023-04-01T05:11:10;5.65;;;2.45;;
56171;SDS011;42052;41.634;-0.946;2023-04-01T05:13:58;6.38;;;2.58;;
56171;SDS011;42052;41.634;-0.946;2023-04-01T05:16:45;7.80;;;2.67;;
56171;SDS011;42052;41.634;-0.946;2023-04-01T05:19:31;6.10;;;2.58;;
56171;SDS011;42052;41.634;-0.946;2023-04-01T05:22:17;4.35;;;2.33;;
56171;SDS011;42052;41.634;-0.946;2023-04-01T05:25:03;5.97;;;2.50;;
56171;SDS011;42052;41.634;-0.946;2023-04-01T05:27:49;7.80;;;2.65;;
56171;SDS011;42052;41.634;-0.946;2023-04-01T05:30:36;5.35;;;2.42;;
56171;SDS011;42052;41.634;-0.946;2023-04-01T05:33:24;6.45;;;2.55;;
56171;SDS011;42052;41.634;-0.946;2023-04-01T05:36:12;6.68;;;2.50;;
56171;SDS011;42052;41.634;-0.946;2023-04-01T05:38:59;5.57;;;2.75;;
56171;SDS011;42052;41.634;-0.946;2023-04-01T05:41:45;5.90;;;2.47;;
56171;SDS011;42052;41.634;-0.946;2023-04-01T05:44:35;7.72;;;2.67;;
56171;SDS011;42052;41.634;-0.946;2023-04-01T05:47:21;6.38;;;2.55;;
56171;SDS011;42052;41.634;-0.946;2023-04-01T05:50:09;6.65;;;2.40;;
56171;SDS011;42052;41.634;-0.946;2023-04-01T05:52:56;7.30;;;2.58;;
56171;SDS011;42052;41.634;-0.946;2023-04-01T05:55:42;5.38;;;2.47;;
56171;SDS011;42052;41.634;-0.946;2023-04-01T05:58:28;5.07;;;2.47;;
56171;SDS011;42052;41.634;-0.946;2023-04-01T06:01:14;7.07;;;2.95;;
56171;SDS011;42052;41.634;-0.946;2023-04-01T06:04:00;5.93;;;2.30;;
56171;SDS011;42052;41.634;-0.946;2023-04-01T06:06:47;7.05;;;2.40;;
56171;SDS011;42052;41.634;-0.946;2023-04-01T06:09:33;6.28;;;2.50;;
56171;SDS011;42052;41.634;-0.946;2023-04-01T06:18:37;5.07;;;2.53;;
56171;SDS011;42052;41.634;-0.946;2023-04-01T06:30:43;7.13;;;2.53;;
56171;SDS011;42052;41.634;-0.946;2023-04-01T06:36:58;4.97;;;2.28;;
56171;SDS011;42052;41.634;-0.946;2023-04-01T06:46:11;6.15;;;2.50;;
56171;SDS011;42052;41.634;-0.946;2023-04-01T06:55:47;7.55;;;2.30;;
56171;SDS011;42052;41.634;-0.946;2023-04-01T06:58:46;6.40;;;2.40;;
56171;SDS011;42052;41.634;-0.946;2023-04-01T07:02:00;7.70;;;2.78;;
56171;SDS011;42052;41.634;-0.946;2023-04-01T07:04:55;6.90;;;2.60;;
56171;SDS011;42052;41.634;-0.946;2023-04-01T07:07:45;6.72;;;2.58;;
56171;SDS011;42052;41.634;-0.946;2023-04-01T07:10:43;5.53;;;2.50;;
56171;SDS011;42052;41.634;-0.946;2023-04-01T07:16:24;5.13;;;2.60;;
56171;SDS011;42052;41.634;-0.946;2023-04-01T07:19:39;7.75;;;2.80;;
56171;SDS011;42052;41.634;-0.946;2023-04-01T07:22:40;6.65;;;2.25;;
56171;SDS011;42052;41.634;-0.946;2023-04-01T07:25:41;6.85;;;2.40;;
56171;SDS011;42052;41.634;-0.946;2023-04-01T07:28:31;7.50;;;2.60;;
56171;SDS011;42052;41.634;-0.946;2023-04-01T07:34:28;6.32;;;2.85;;
56171;SDS011;42052;41.634;-0.946;2023-04-01T07:49:04;6.80;;;2.85;;
56171;SDS011;42052;41.634;-0.946;2023-04-01T07:54:50;8.35;;;2.70;;
56171;SDS011;42052;41.634;-0.946;2023-04-01T08:01:05;6.45;;;2.65;;
56171;SDS011;42052;41.634;-0.946;2023-04-01T08:07:13;5.60;;;2.38;;
56171;SDS011;42052;41.634;-0.946;2023-04-01T08:22:48;6.65;;;2.53;;
56171;SDS011;42052;41.634;-0.946;2023-04-01T08:25:46;7.57;;;2.80;;
56171;SDS011;42052;41.634;-0.946;2023-04-01T08:29:00;5.70;;;2.63;;
56171;SDS011;42052;41.634;-0.946;2023-04-01T08:34:55;6.18;;;2.60;;
56171;SDS011;42052;41.634;-0.946;2023-04-01T08:37:53;5.97;;;2.45;;
56171;SDS011;42052;41.634;-0.946;2023-04-01T08:49:34;5.35;;;2.30;;
56171;SDS011;42052;41.634;-0.946;2023-04-01T08:55:31;6.38;;;2.70;;
56171;SDS011;42052;41.634;-0.946;2023-04-01T09:11:08;5.90;;;2.30;;
56171;SDS011;42052;41.634;-0.946;2023-04-01T09:23:46;5.88;;;2.70;;
56171;SDS011;42052;41.634;-0.946;2023-04-01T09:39:40;6.85;;;2.53;;
56171;SDS011;42052;41.634;-0.946;2023-04-01T09:42:49;6.43;;;2.80;;
56171;SDS011;42052;41.634;-0.946;2023-04-01T09:52:00;6.90;;;2.60;;
56171;SDS011;42052;41.634;-0.946;2023-04-01T10:14:37;5.28;;;2.65;;
56171;SDS011;42052;41.634;-0.946;2023-04-01T10:36:34;7.25;;;2.80;;
56171;SDS011;42052;41.634;-0.946;2023-04-01T10:40:00;5.43;;;2.15;;
56171;SDS011;42052;41.634;-0.946;2023-04-01T10:43:21;5.78;;;2.40;;
56171;SDS011;42052;41.634;-0.946;2023-04-01T10:53:04;5.22;;;2.58;;
56171;SDS011;42052;41.634;-0.946;2023-04-01T11:30:14;5.90;;;2.33;;
56171;SDS011;42052;41.634;-0.946;2023-04-01T11:33:26;4.80;;;2.25;;
56171;SDS011;42052;41.634;-0.946;2023-04-01T11:39:51;5.55;;;2.60;;
56171;SDS011;42052;41.634;-0.946;2023-04-01T11:43:06;4.82;;;2.00;;
56171;SDS011;42052;41.634;-0.946;2023-04-01T11:49:19;6.90;;;2.20;;
56171;SDS011;42052;41.634;-0.946;2023-04-01T11:55:38;5.63;;;2.22;;
56171;SDS011;42052;41.634;-0.946;2023-04-01T12:11:03;5.07;;;2.38;;
56171;SDS011;42052;41.634;-0.946;2023-04-01T12:14:12;4.50;;;2.40;;
56171;SDS011;42052;41.634;-0.946;2023-04-01T12:17:36;5.55;;;2.55;;
56171;SDS011;42052;41.634;-0.946;2023-04-01T12:58:05;5.38;;;2.13;;
56171;SDS011;42052;41.634;-0.946;2023-04-01T13:06:53;3.65;;;2.10;;
56171;SDS011;42052;41.634;-0.946;2023-04-01T13:13:41;4.97;;;2.30;;
56171;SDS011;42052;41.634;-0.946;2023-04-01T13:16:37;5.47;;;2.20;;
56171;SDS011;42052;41.634;-0.946;2023-04-01T13:19:37;3.78;;;1.98;;
56171;SDS011;42052;41.634;-0.946;2023-04-01T13:22:32;5.20;;;2.30;;
56171;SDS011;42052;41.634;-0.946;2023-04-01T13:35:08;4.22;;;2.10;;
56171;SDS011;42052;41.634;-0.946;2023-04-01T13:41:29;5.07;;;2.17;;
56171;SDS011;42052;41.634;-0.946;2023-04-01T13:44:19;4.63;;;1.97;;
56171;SDS011;42052;41.634;-0.946;2023-04-01T14:06:13;3.65;;;2.08;;
56171;SDS011;42052;41.634;-0.946;2023-04-01T14:12:36;5.18;;;2.20;;
56171;SDS011;42052;41.634;-0.946;2023-04-01T14:15:52;6.85;;;2.35;;
56171;SDS011;42052;41.634;-0.946;2023-04-01T14:22:05;4.70;;;2.15;;
56171;SDS011;42052;41.634;-0.946;2023-04-01T14:34:05;5.25;;;2.00;;
56171;SDS011;42052;41.634;-0.946;2023-04-01T14:37:15;4.20;;;2.05;;
56171;SDS011;42052;41.634;-0.946;2023-04-01T14:40:14;4.65;;;2.20;;
56171;SDS011;42052;41.634;-0.946;2023-04-01T14:49:19;4.95;;;2.15;;
56171;SDS011;42052;41.634;-0.946;2023-04-01T14:55:19;4.45;;;2.10;;
56171;SDS011;42052;41.634;-0.946;2023-04-01T14:58:14;4.88;;;2.00;;
56171;SDS011;42052;41.634;-0.946;2023-04-01T15:38:34;3.00;;;1.80;;
56171;SDS011;42052;41.634;-0.946;2023-04-01T15:41:35;3.45;;;1.65;;
56171;SDS011;42052;41.634;-0.946;2023-04-01T15:47:59;3.80;;;1.90;;
56171;SDS011;42052;41.634;-0.946;2023-04-01T16:00:40;3.20;;;1.70;;
56171;SDS011;42052;41.634;-0.946;2023-04-01T16:06:40;4.13;;;2.00;;
56171;SDS011;42052;41.634;-0.946;2023-04-01T16:22:39;3.67;;;1.58;;
56171;SDS011;42052;41.634;-0.946;2023-04-01T16:26:15;4.45;;;1.95;;
56171;SDS011;42052;41.634;-0.946;2023-04-01T16:32:26;4.30;;;1.90;;
56171;SDS011;42052;41.634;-0.946;2023-04-01T16:35:22;3.03;;;1.70;;
56171;SDS011;42052;41.634;-0.946;2023-04-01T16:41:32;3.78;;;1.60;;
56171;SDS011;42052;41.634;-0.946;2023-04-01T16:44:23;2.78;;;1.60;;
56171;SDS011;42052;41.634;-0.946;2023-04-01T16:47:11;3.17;;;1.60;;
56171;SDS011;42052;41.634;-0.946;2023-04-01T16:50:07;5.67;;;1.70;;
56171;SDS011;42052;41.634;-0.946;2023-04-01T16:53:09;2.92;;;1.55;;
56171;SDS011;42052;41.634;-0.946;2023-04-01T17:01:44;3.70;;;1.52;;
56171;SDS011;42052;41.634;-0.946;2023-04-01T17:04:43;4.47;;;1.60;;
56171;SDS011;42052;41.634;-0.946;2023-04-01T17:14:07;2.90;;;1.63;;
56171;SDS011;42052;41.634;-0.946;2023-04-01T17:20:31;3.30;;;1.40;;
56171;SDS011;42052;41.634;-0.946;2023-04-01T17:39:02;4.75;;;1.40;;
56171;SDS011;42052;41.634;-0.946;2023-04-01T18:06:45;2.58;;;1.10;;
56171;SDS011;42052;41.634;-0.946;2023-04-01T18:10:10;2.35;;;1.02;;
56171;SDS011;42052;41.634;-0.946;2023-04-01T18:22:10;2.57;;;1.10;;
56171;SDS011;42052;41.634;-0.946;2023-04-01T18:25:28;2.63;;;0.93;;
56171;SDS011;42052;41.634;-0.946;2023-04-01T18:28:34;1.40;;;0.90;;
56171;SDS011;42052;41.634;-0.946;2023-04-01T18:31:26;1.13;;;0.77;;
56171;SDS011;42052;41.634;-0.946;2023-04-01T18:38:00;3.47;;;1.00;;
56171;SDS011;42052;41.634;-0.946;2023-04-01T18:40:49;2.28;;;1.05;;
56171;SDS011;42052;41.634;-0.946;2023-04-01T18:52:45;1.92;;;1.00;;
56171;SDS011;42052;41.634;-0.946;2023-04-01T18:55:39;1.42;;;0.77;;
56171;SDS011;42052;41.634;-0.946;2023-04-01T18:58:34;2.15;;;0.70;;
56171;SDS011;42052;41.634;-0.946;2023-04-01T19:04:31;1.92;;;0.85;;
56171;SDS011;42052;41.634;-0.946;2023-04-01T19:07:40;2.45;;;0.90;;
56171;SDS011;42052;41.634;-0.946;2023-04-01T19:10:45;1.92;;;0.70;;
56171;SDS011;42052;41.634;-0.946;2023-04-01T19:26:11;1.00;;;0.60;;
56171;SDS011;42052;41.634;-0.946;2023-04-01T19:29:06;1.70;;;0.57;;
56171;SDS011;42052;41.634;-0.946;2023-04-01T19:38:55;1.45;;;0.70;;
56171;SDS011;42052;41.634;-0.946;2023-04-01T19:54:33;3.25;;;0.70;;
56171;SDS011;42052;41.634;-0.946;2023-04-01T20:00:41;2.05;;;0.63;;
56171;SDS011;42052;41.634;-0.946;2023-04-01T20:03:38;1.60;;;0.70;;
56171;SDS011;42052;41.634;-0.946;2023-04-01T20:09:53;1.85;;;0.60;;
56171;SDS011;42052;41.634;-0.946;2023-04-01T20:13:04;1.50;;;0.75;;
56171;SDS011;42052;41.634;-0.946;2023-04-01T20:16:05;1.25;;;0.52;;
56171;SDS011;42052;41.634;-0.946;2023-04-01T20:18:57;1.27;;;0.70;;
56171;SDS011;42052;41.634;-0.946;2023-04-01T20:21:47;1.08;;;0.60;;
56171;SDS011;42052;41.634;-0.946;2023-04-01T20:24:37;1.83;;;0.70;;
56171;SDS011;42052;41.634;-0.946;2023-04-01T20:27:32;1.70;;;0.80;;
56171;SDS011;42052;41.634;-0.946;2023-04-01T20:33:34;1.38;;;0.60;;
56171;SDS011;42052;41.634;-0.946;2023-04-01T20:39:35;1.17;;;0.50;;
56171;SDS011;42052;41.634;-0.946;2023-04-01T20:48:45;2.00;;;0.60;;
56171;SDS011;42052;41.634;-0.946;2023-04-01T21:16:49;2.10;;;0.70;;
56171;SDS011;42052;41.634;-0.946;2023-04-01T21:32:13;1.90;;;0.60;;
56171;SDS011;42052;41.634;-0.946;2023-04-01T21:50:39;3.33;;;0.80;;
56171;SDS011;42052;41.634;-0.946;2023-04-01T21:56:43;1.27;;;0.60;;
56171;SDS011;42052;41.634;-0.946;2023-04-01T22:03:18;1.15;;;0.50;;
56171;SDS011;42052;41.634;-0.946;2023-04-01T22:06:24;1.80;;;0.80;;
56171;SDS011;42052;41.634;-0.946;2023-04-01T22:12:15;1.45;;;0.60;;
56171;SDS011;42052;41.634;-0.946;2023-04-01T22:22:18;0.90;;;0.50;;
56171;SDS011;42052;41.634;-0.946;2023-04-01T22:25:20;2.72;;;0.70;;
56171;SDS011;42052;41.634;-0.946;2023-04-01T22:28:22;1.17;;;0.50;;
56171;SDS011;42052;41.634;-0.946;2023-04-01T22:31:15;1.73;;;0.60;;
56171;SDS011;42052;41.634;-0.946;2023-04-01T22:34:13;1.88;;;0.82;;
56171;SDS011;42052;41.634;-0.946;2023-04-01T22:37:23;1.55;;;0.65;;
56171;SDS011;42052;41.634;-0.946;2023-04-01T22:43:47;1.95;;;0.70;;
56171;SDS011;42052;41.634;-0.946;2023-04-01T22:46:46;1.05;;;0.47;;
56171;SDS011;42052;41.634;-0.946;2023-04-01T22:49:52;2.00;;;0.70;;
56171;SDS011;42052;41.634;-0.946;2023-04-01T22:52:46;1.38;;;0.52;;
56171;SDS011;42052;41.634;-0.946;2023-04-01T22:55:35;1.85;;;0.63;;
56171;SDS011;42052;41.634;-0.946;2023-04-01T22:58:43;3.33;;;0.82;;
56171;SDS011;42052;41.634;-0.946;2023-04-01T23:01:44;2.15;;;0.70;;
56171;SDS011;42052;41.634;-0.946;2023-04-01T23:04:37;0.95;;;0.50;;
56171;SDS011;42052;41.634;-0.946;2023-04-01T23:16:41;1.67;;;0.60;;
56171;SDS011;42052;41.634;-0.946;2023-04-01T23:28:55;1.73;;;0.77;;
56171;SDS011;42052;41.634;-0.946;2023-04-01T23:31:45;1.93;;;0.60;;
56171;SDS011;42052;41.634;-0.946;2023-04-01T23:34:32;2.30;;;0.65;;
56171;SDS011;42052;41.634;-0.946;2023-04-01T23:37:20;0.93;;;0.50;;
56171;SDS011;42052;41.634;-0.946;2023-04-01T23:40:10;1.98;;;0.75;;
56171;SDS011;42052;41.634;-0.946;2023-04-01T23:42:58;1.75;;;0.70;;
56171;SDS011;42052;41.634;-0.946;2023-04-01T23:45:44;1.98;;;0.65;;
56171;SDS011;42052;41.634;-0.946;2023-04-01T23:48:41;1.20;;;0.40;;
56171;SDS011;42052;41.634;-0.946;2023-04-01T23:51:35;2.33;;;0.90;;
56171;SDS011;42052;41.634;-0.946;2023-04-01T23:57:19;2.25;;;0.65;;
